Algoma, West Virginia
Current Conditions -  °F | °C
As of 4:52 PM on Thursday 23 Oct 2014 (Local Time) from KBLF Reporting Station
Overcast Overcast  
Wind Chill: 46°   Ceiling: 2200
Heat Index: 49°   Visibility: 10mi
Dew Point: 39°   Wind: 7mph
Humidity: 69%   Direction: 300°WNW
Pressure: 30.11"   Gusts: NA
Location:  37.3807°N, 81.4099°W
Report Text: KBLF 232052Z AUTO 30006KT 10SM OVC022 09/04 A3011 RMK AO2 SLP193 T00940039 56009
Loading
Personal Weather Stations






























Interactive Weather Map
Tropical Storm Tracking
New forecast layout! Learn more

10-Day Weather Forecast

Advertisements
Track Severe Weather on mobile